createdAt,value
2022-10-15T00:01:13.691Z,15.16
2022-10-15T00:06:22.236Z,15.18
2022-10-15T00:08:50.188Z,15.16
2022-10-15T00:11:20.255Z,15.17
2022-10-15T00:13:48.287Z,15.16
2022-10-15T00:16:18.144Z,15.19
2022-10-15T00:18:46.175Z,15.17
2022-10-15T00:21:15.642Z,15.10
2022-10-15T00:23:45.434Z,15.01
2022-10-15T00:26:16.046Z,14.97
2022-10-15T00:28:43.881Z,14.96
2022-10-15T00:31:13.949Z,14.95
2022-10-15T00:33:42.131Z,14.94
2022-10-15T00:36:12.875Z,14.92
2022-10-15T00:38:40.622Z,14.87
2022-10-15T00:41:14.463Z,14.93
2022-10-15T00:43:44.504Z,14.86
2022-10-15T00:46:24.973Z,14.89
2022-10-15T00:48:56.770Z,14.92
2022-10-15T00:51:28.526Z,14.87
2022-10-15T00:53:56.378Z,14.89
2022-10-15T00:56:28.426Z,14.89
2022-10-15T00:58:57.722Z,14.95
2022-10-15T01:01:28.583Z,14.97
2022-10-15T01:03:57.074Z,14.95
2022-10-15T01:06:25.681Z,14.87
2022-10-15T01:08:53.624Z,14.86
2022-10-15T01:11:38.996Z,14.89
2022-10-15T01:14:29.091Z,14.87
2022-10-15T01:17:05.850Z,14.86
2022-10-15T01:19:58.705Z,14.90
2022-10-15T01:22:37.647Z,14.83
2022-10-15T01:25:25.378Z,14.84
2022-10-15T01:27:57.933Z,14.87
2022-10-15T01:30:32.783Z,14.91
2022-10-15T01:33:25.801Z,14.97
2022-10-15T01:36:01.373Z,15.00
2022-10-15T01:38:40.325Z,14.97
2022-10-15T01:41:12.346Z,14.96
2022-10-15T01:43:47.577Z,14.90
2022-10-15T01:46:22.458Z,14.83
2022-10-15T01:48:52.634Z,14.88
2022-10-15T01:51:21.755Z,14.85
2022-10-15T01:53:51.394Z,14.88
2022-10-15T01:56:22.742Z,14.93
2022-10-15T01:58:53.806Z,14.95
2022-10-15T02:01:22.924Z,14.96
2022-10-15T02:03:52.549Z,14.87
2022-10-15T02:06:24.948Z,14.83
2022-10-15T02:09:03.150Z,14.83
2022-10-15T02:11:35.395Z,14.91
2022-10-15T02:14:09.600Z,14.88
2022-10-15T02:16:44.381Z,14.90
2022-10-15T02:19:18.018Z,14.89
2022-10-15T02:21:50.447Z,14.77
2022-10-15T02:24:24.460Z,14.73
2022-10-15T02:26:56.623Z,14.65
2022-10-15T02:29:28.098Z,14.57
2022-10-15T02:31:59.910Z,14.64
2022-10-15T02:34:31.034Z,14.61
2022-10-15T02:37:02.013Z,14.56
2022-10-15T02:39:29.875Z,14.53
2022-10-15T02:41:58.414Z,14.52
2022-10-15T02:44:26.051Z,14.54
2022-10-15T02:46:56.765Z,14.54
2022-10-15T02:49:25.767Z,14.55
2022-10-15T02:51:53.687Z,14.54
2022-10-15T02:54:21.342Z,14.63
2022-10-15T02:56:49.044Z,14.65
2022-10-15T02:59:18.433Z,14.65
2022-10-15T03:01:46.340Z,14.65
2022-10-15T03:04:13.912Z,14.65
2022-10-15T03:06:42.872Z,14.69
2022-10-15T03:09:10.467Z,14.64
2022-10-15T03:11:39.367Z,14.52
2022-10-15T03:14:07.015Z,14.60
2022-10-15T03:16:34.631Z,14.68
2022-10-15T03:19:02.211Z,14.75
2022-10-15T03:21:31.000Z,14.78
2022-10-15T03:24:00.234Z,14.77
2022-10-15T03:26:27.818Z,14.84
2022-10-15T03:28:55.746Z,14.80
2022-10-15T03:31:23.370Z,14.78
2022-10-15T03:33:50.963Z,14.78
2022-10-15T03:36:18.685Z,14.75
2022-10-15T03:38:46.318Z,14.75
2022-10-15T03:41:15.260Z,14.79
2022-10-15T03:43:43.206Z,14.77
2022-10-15T03:46:11.125Z,14.79
2022-10-15T03:48:39.335Z,14.86
2022-10-15T03:51:07.119Z,14.83
2022-10-15T03:53:34.663Z,14.77
2022-10-15T03:56:05.101Z,14.74
2022-10-15T03:58:34.102Z,14.69
2022-10-15T04:01:01.737Z,14.78
2022-10-15T04:03:29.309Z,14.80
2022-10-15T04:05:58.722Z,14.82
2022-10-15T04:08:29.088Z,14.82
2022-10-15T04:10:56.665Z,14.83
2022-10-15T04:13:24.302Z,14.90
2022-10-15T04:15:53.275Z,14.92
2022-10-15T04:18:21.827Z,14.97
2022-10-15T04:20:49.482Z,15.01
2022-10-15T04:23:18.549Z,15.04
2022-10-15T04:25:46.164Z,15.05
2022-10-15T04:28:13.774Z,15.07
2022-10-15T04:30:41.408Z,15.02
2022-10-15T04:33:10.986Z,14.99
2022-10-15T04:35:38.656Z,14.99
2022-10-15T04:38:06.718Z,15.04
2022-10-15T04:40:34.298Z,15.00
2022-10-15T04:43:01.903Z,15.00
2022-10-15T04:45:29.495Z,14.98
2022-10-15T04:47:57.916Z,15.00
2022-10-15T04:50:26.992Z,15.01
2022-10-15T04:52:54.556Z,15.03
2022-10-15T04:55:22.182Z,15.06
2022-10-15T04:57:49.887Z,15.07
2022-10-15T05:00:17.656Z,15.09
2022-10-15T05:02:45.312Z,15.10
2022-10-15T05:05:12.901Z,15.09
2022-10-15T05:07:41.802Z,15.15
2022-10-15T05:10:09.954Z,15.14
2022-10-15T05:12:37.561Z,15.18
2022-10-15T05:15:05.567Z,15.21
2022-10-15T05:17:33.211Z,15.21
2022-10-15T05:20:00.830Z,15.27
2022-10-15T05:22:28.438Z,15.31
2022-10-15T05:24:57.366Z,15.32
2022-10-15T05:27:25.203Z,15.30
2022-10-15T05:29:53.126Z,15.32
2022-10-15T05:34:51.389Z,15.36
2022-10-15T05:37:19.108Z,15.34
2022-10-15T05:39:46.701Z,15.38
2022-10-15T05:42:15.662Z,15.40
2022-10-15T05:44:43.290Z,15.45
2022-10-15T05:47:12.410Z,15.43
2022-10-15T05:49:40.095Z,15.40
2022-10-15T05:52:07.726Z,15.43
2022-10-15T05:54:35.315Z,15.46
2022-10-15T05:57:02.951Z,15.44
2022-10-15T05:59:32.132Z,15.40
2022-10-15T06:01:59.935Z,15.40
2022-10-15T06:04:29.541Z,15.39
2022-10-15T06:06:59.564Z,15.41
2022-10-15T06:09:27.224Z,15.46
2022-10-15T06:11:54.787Z,15.47
2022-10-15T06:14:22.458Z,15.48
2022-10-15T06:16:52.832Z,15.48
2022-10-15T06:19:20.409Z,15.47
2022-10-15T06:21:47.980Z,15.45
2022-10-15T06:24:15.511Z,15.45
2022-10-15T06:26:43.113Z,15.46
2022-10-15T06:29:13.541Z,15.48
2022-10-15T06:31:41.181Z,15.51
2022-10-15T06:34:10.211Z,15.46
2022-10-15T06:36:38.896Z,15.45
2022-10-15T06:39:06.800Z,15.47
2022-10-15T06:41:34.368Z,15.52
2022-10-15T06:44:02.022Z,15.49
2022-10-15T06:46:29.599Z,15.47
2022-10-15T06:48:57.237Z,15.52
2022-10-15T06:51:26.194Z,15.50
2022-10-15T06:53:53.786Z,15.50
2022-10-15T06:56:21.405Z,15.55
2022-10-15T06:58:48.956Z,15.53
2022-10-15T07:01:17.208Z,15.54
2022-10-15T07:03:44.839Z,15.60
2022-10-15T07:06:12.538Z,15.64
2022-10-15T07:08:41.477Z,15.58
2022-10-15T07:11:10.346Z,15.65
2022-10-15T07:13:38.215Z,15.65
2022-10-15T07:16:06.983Z,15.68
2022-10-15T07:18:37.994Z,15.66
2022-10-15T07:21:13.191Z,15.73
2022-10-15T07:23:42.339Z,15.73
2022-10-15T07:26:09.979Z,15.72
2022-10-15T07:28:37.579Z,15.74
2022-10-15T07:31:08.199Z,15.79
2022-10-15T07:33:36.490Z,15.83
2022-10-15T07:36:06.229Z,15.76
2022-10-15T07:38:33.884Z,15.79
2022-10-15T07:41:04.188Z,15.77
2022-10-15T07:43:31.878Z,15.80
2022-10-15T07:45:59.483Z,15.79
2022-10-15T07:48:29.121Z,15.75
2022-10-15T07:50:57.080Z,15.70
2022-10-15T07:53:24.849Z,15.64
2022-10-15T07:55:55.636Z,15.66
2022-10-15T07:58:24.568Z,15.66
2022-10-15T08:00:52.194Z,15.65
2022-10-15T08:03:19.766Z,15.62
2022-10-15T08:05:47.410Z,15.58
2022-10-15T08:08:15.021Z,15.62
2022-10-15T08:10:42.576Z,15.65
2022-10-15T08:13:10.110Z,15.70
2022-10-15T08:15:41.452Z,15.63
2022-10-15T08:18:09.954Z,15.61
2022-10-15T08:20:37.679Z,15.61
2022-10-15T08:23:05.743Z,15.59
2022-10-15T08:25:33.401Z,15.61
2022-10-15T08:28:01.043Z,15.65
2022-10-15T08:30:28.688Z,15.72
2022-10-15T08:32:58.185Z,15.69
2022-10-15T08:35:26.585Z,15.66
2022-10-15T08:37:55.017Z,15.70
2022-10-15T08:40:23.691Z,15.72
2022-10-15T08:42:52.330Z,15.76
2022-10-15T08:45:26.431Z,15.77
2022-10-15T08:47:59.588Z,15.78
2022-10-15T08:50:33.199Z,15.75
2022-10-15T08:53:01.458Z,15.62
2022-10-15T08:55:33.028Z,15.60
2022-10-15T08:58:13.731Z,15.56
2022-10-15T09:00:45.022Z,15.55
2022-10-15T09:03:28.783Z,15.51
2022-10-15T09:06:05.438Z,15.48
2022-10-15T09:08:42.847Z,15.54
2022-10-15T09:11:17.712Z,15.50
2022-10-15T09:13:47.605Z,15.56
2022-10-15T09:16:17.820Z,15.63
2022-10-15T09:18:48.865Z,15.70
2022-10-15T09:21:16.789Z,15.75
2022-10-15T09:23:45.294Z,15.83
2022-10-15T09:26:28.264Z,15.85
2022-10-15T09:29:04.261Z,15.92
2022-10-15T09:31:39.503Z,15.98
2022-10-15T09:34:15.635Z,16.11
2022-10-15T09:36:48.808Z,16.20
2022-10-15T09:39:41.314Z,16.32
2022-10-15T09:42:20.860Z,16.40
2022-10-15T09:44:49.209Z,16.41
2022-10-15T09:47:18.875Z,16.45
2022-10-15T09:49:47.853Z,16.57
2022-10-15T09:52:24.703Z,16.62
2022-10-15T09:55:04.308Z,16.67
2022-10-15T09:57:33.590Z,16.71
2022-10-15T10:00:03.741Z,16.78
2022-10-15T10:02:33.799Z,16.78
2022-10-15T10:05:27.710Z,16.80
2022-10-15T10:08:09.100Z,16.87
2022-10-15T10:10:46.722Z,16.83
2022-10-15T10:13:24.812Z,16.92
2022-10-15T10:15:58.290Z,16.99
2022-10-15T10:18:27.425Z,17.05
2022-10-15T10:20:59.613Z,17.14
2022-10-15T10:23:34.551Z,17.18
2022-10-15T10:26:04.566Z,17.25
2022-10-15T10:28:39.278Z,17.32
2022-10-15T10:31:11.035Z,17.37
2022-10-15T10:33:45.561Z,17.40
2022-10-15T10:36:25.577Z,17.52
2022-10-15T10:39:01.623Z,17.50
2022-10-15T10:41:50.919Z,17.53
2022-10-15T10:44:24.036Z,17.62
2022-10-15T10:47:18.678Z,17.70
2022-10-15T10:49:48.793Z,17.78
2022-10-15T10:52:29.565Z,17.84
2022-10-15T10:55:01.696Z,17.90
2022-10-15T10:57:40.493Z,17.90
2022-10-15T11:00:13.301Z,17.91
2022-10-15T11:02:43.939Z,17.96
2022-10-15T11:05:12.494Z,18.00
2022-10-15T11:07:51.296Z,18.03
2022-10-15T11:10:25.907Z,18.04
2022-10-15T11:13:08.682Z,18.13
2022-10-15T11:15:45.410Z,18.19
2022-10-15T11:18:31.429Z,18.30
2022-10-15T11:21:08.439Z,18.34
2022-10-15T11:23:55.328Z,18.31
2022-10-15T11:26:52.039Z,18.35
2022-10-15T11:29:35.036Z,18.36
2022-10-15T11:32:17.242Z,18.39
2022-10-15T11:35:02.206Z,18.39
2022-10-15T11:37:42.142Z,18.35
2022-10-15T11:40:22.628Z,18.34
2022-10-15T11:42:58.339Z,18.26
2022-10-15T11:45:44.914Z,18.25
2022-10-15T11:48:17.291Z,18.26
2022-10-15T11:50:50.730Z,18.35
2022-10-15T11:53:53.685Z,18.43
2022-10-15T11:56:26.591Z,18.45
2022-10-15T11:59:00.337Z,18.46
2022-10-15T12:01:34.922Z,18.50
2022-10-15T12:04:09.453Z,18.53
2022-10-15T12:06:41.061Z,18.58
2022-10-15T12:09:09.420Z,18.64
2022-10-15T12:11:49.301Z,18.64
2022-10-15T12:14:25.212Z,18.62
2022-10-15T12:17:00.428Z,18.55
2022-10-15T12:19:31.064Z,18.50
2022-10-15T12:22:10.814Z,18.55
2022-10-15T12:24:54.130Z,18.61
2022-10-15T12:27:30.405Z,18.69
2022-10-15T12:30:34.259Z,18.71
2022-10-15T12:33:03.179Z,18.69
2022-10-15T12:35:38.389Z,18.77
2022-10-15T12:38:28.228Z,18.79
2022-10-15T12:41:02.462Z,18.80
2022-10-15T12:43:33.518Z,18.82
2022-10-15T12:46:03.388Z,18.82
2022-10-15T12:48:34.211Z,18.79
2022-10-15T12:51:38.643Z,18.81
2022-10-15T12:54:41.128Z,18.81
2022-10-15T12:57:46.385Z,18.85
2022-10-15T13:00:42.558Z,18.83
2022-10-15T13:03:22.014Z,18.81
2022-10-15T13:05:53.260Z,18.85
2022-10-15T13:08:24.330Z,18.82
2022-10-15T13:10:55.638Z,18.89
2022-10-15T13:13:28.147Z,18.96
2022-10-15T13:16:00.422Z,18.89
2022-10-15T13:18:30.949Z,18.92
2022-10-15T13:20:59.483Z,18.93
2022-10-15T13:23:30.000Z,19.01
2022-10-15T13:26:13.001Z,18.93
2022-10-15T13:28:42.498Z,18.93
2022-10-15T13:31:16.847Z,18.92
2022-10-15T13:33:46.990Z,18.98
2022-10-15T13:36:21.275Z,18.96
2022-10-15T13:38:54.572Z,19.03
2022-10-15T13:41:27.446Z,19.01
2022-10-15T13:43:58.896Z,18.93
2022-10-15T13:46:29.385Z,18.93
2022-10-15T13:49:05.520Z,19.00
2022-10-15T13:51:35.601Z,19.08
2022-10-15T13:54:08.732Z,19.20
2022-10-15T13:56:36.530Z,19.20
2022-10-15T13:59:05.019Z,19.32
2022-10-15T14:01:36.185Z,19.68
2022-10-15T14:04:05.106Z,19.93
2022-10-15T14:06:35.082Z,19.93
2022-10-15T14:09:15.014Z,19.85
2022-10-15T14:11:42.622Z,19.70
2022-10-15T14:14:32.273Z,19.60
2022-10-15T14:17:05.247Z,19.60
2022-10-15T14:19:34.769Z,19.53
2022-10-15T14:22:03.279Z,19.43
2022-10-15T14:24:34.058Z,19.31
2022-10-15T14:27:07.358Z,19.23
2022-10-15T14:29:43.668Z,19.19
2022-10-15T14:32:24.938Z,19.26
2022-10-15T14:34:53.677Z,19.28
2022-10-15T14:37:43.401Z,19.34
2022-10-15T14:40:18.539Z,19.39
2022-10-15T14:42:48.777Z,19.40
2022-10-15T14:45:24.283Z,19.38
2022-10-15T14:47:57.007Z,19.41
2022-10-15T14:50:27.479Z,19.46
2022-10-15T14:52:55.815Z,19.40
2022-10-15T14:55:33.390Z,19.39
2022-10-15T14:58:03.420Z,19.37
2022-10-15T15:00:34.573Z,19.39
2022-10-15T15:03:07.196Z,19.68
2022-10-15T15:05:46.818Z,19.80
2022-10-15T15:08:14.499Z,19.78
2022-10-15T15:10:43.014Z,19.76
2022-10-15T15:13:13.174Z,19.56
2022-10-15T15:15:41.395Z,19.42
2022-10-15T15:18:11.830Z,19.34
2022-10-15T15:20:40.671Z,19.36
2022-10-15T15:23:11.750Z,19.32
2022-10-15T15:25:41.134Z,19.30
2022-10-15T15:28:13.838Z,19.22
2022-10-15T15:30:43.667Z,19.20
2022-10-15T15:33:14.861Z,19.17
2022-10-15T15:35:50.816Z,19.15
2022-10-15T15:38:18.961Z,19.13
2022-10-15T15:40:46.583Z,19.13
2022-10-15T15:43:16.165Z,19.14
2022-10-15T15:45:43.914Z,19.13
2022-10-15T15:48:12.926Z,19.07
2022-10-15T15:50:40.527Z,19.08
2022-10-15T15:53:08.084Z,19.14
2022-10-15T15:55:35.669Z,19.13
2022-10-15T15:58:03.235Z,19.14
2022-10-15T16:00:30.955Z,19.06
2022-10-15T16:02:58.583Z,19.13
2022-10-15T16:05:27.575Z,19.12
2022-10-15T16:07:55.246Z,19.14
2022-10-15T16:10:22.878Z,19.13
2022-10-15T16:12:50.467Z,19.14
2022-10-15T16:15:18.277Z,19.16
2022-10-15T16:17:45.855Z,19.16
2022-10-15T16:20:14.059Z,19.16
2022-10-15T16:22:43.009Z,19.14
2022-10-15T16:25:11.291Z,19.08
2022-10-15T16:27:38.856Z,19.10
2022-10-15T16:30:07.541Z,19.02
2022-10-15T16:32:35.074Z,19.07
2022-10-15T16:35:02.692Z,19.08
2022-10-15T16:37:30.273Z,19.10
2022-10-15T16:39:59.186Z,19.03
2022-10-15T16:42:26.823Z,19.10
2022-10-15T16:44:54.379Z,19.02
2022-10-15T16:47:22.094Z,18.90
2022-10-15T16:49:50.009Z,18.89
2022-10-15T16:52:17.608Z,19.02
2022-10-15T16:54:45.170Z,18.99
2022-10-15T16:57:14.216Z,18.95
2022-10-15T16:59:41.934Z,18.96
2022-10-15T17:02:10.267Z,18.86
2022-10-15T17:04:37.928Z,18.86
2022-10-15T17:07:05.848Z,18.83
2022-10-15T17:09:34.123Z,18.90
2022-10-15T17:12:01.746Z,18.92
2022-10-15T17:14:30.800Z,18.76
2022-10-15T17:16:58.359Z,18.78
2022-10-15T17:19:29.159Z,18.75
2022-10-15T17:21:59.488Z,18.83
2022-10-15T17:24:27.077Z,18.88
2022-10-15T17:26:57.735Z,18.91
2022-10-15T17:29:29.058Z,18.72
2022-10-15T17:32:01.567Z,18.65
2022-10-15T17:34:29.463Z,18.63
2022-10-15T17:36:57.410Z,18.57
2022-10-15T17:39:25.178Z,18.77
2022-10-15T17:41:53.083Z,18.87
2022-10-15T17:44:20.796Z,18.84
2022-10-15T17:49:22.399Z,18.84
2022-10-15T17:51:50.056Z,18.76
2022-10-15T17:54:17.756Z,18.72
2022-10-15T17:56:45.415Z,18.84
2022-10-15T17:59:13.447Z,18.94
2022-10-15T18:01:59.568Z,18.90
2022-10-15T18:04:29.649Z,18.75
2022-10-15T18:07:00.175Z,18.77
2022-10-15T18:09:28.604Z,18.67
2022-10-15T18:11:56.693Z,18.68
2022-10-15T18:14:24.350Z,18.61
2022-10-15T18:16:51.991Z,18.58
2022-10-15T18:19:19.785Z,18.54
2022-10-15T18:21:49.641Z,18.49
2022-10-15T18:24:22.614Z,18.56
2022-10-15T18:26:50.766Z,18.72
2022-10-15T18:29:22.348Z,18.68
2022-10-15T18:31:53.582Z,18.71
2022-10-15T18:34:24.019Z,18.48
2022-10-15T18:36:53.060Z,18.52
2022-10-15T18:39:20.763Z,18.46
2022-10-15T18:41:48.389Z,18.60
2022-10-15T18:44:21.458Z,18.59
2022-10-15T18:46:49.199Z,18.62
2022-10-15T18:49:18.294Z,18.63
2022-10-15T18:51:50.844Z,18.61
2022-10-15T18:54:25.384Z,18.65
2022-10-15T18:56:53.857Z,18.76
2022-10-15T18:59:21.757Z,18.85
2022-10-15T19:01:50.824Z,18.86
2022-10-15T19:04:20.681Z,18.81
2022-10-15T19:06:50.518Z,18.74
2022-10-15T19:09:24.518Z,18.76
2022-10-15T19:11:55.199Z,18.71
2022-10-15T19:14:24.102Z,18.59
2022-10-15T19:16:54.132Z,18.64
2022-10-15T19:19:23.237Z,18.66
2022-10-15T19:21:52.248Z,18.65
2022-10-15T19:24:21.671Z,18.66
2022-10-15T19:26:51.623Z,18.59
2022-10-15T19:29:19.592Z,18.45
2022-10-15T19:31:49.100Z,18.41
2022-10-15T19:34:17.087Z,18.39
2022-10-15T19:36:47.238Z,18.58
2022-10-15T19:39:17.478Z,18.49
2022-10-15T19:41:46.685Z,18.58
2022-10-15T19:44:17.998Z,18.58
2022-10-15T19:46:46.766Z,18.54
2022-10-15T19:49:15.262Z,18.51
2022-10-15T19:51:43.286Z,18.50
2022-10-15T19:54:10.963Z,18.48
2022-10-15T19:56:38.587Z,18.52
2022-10-15T19:59:07.029Z,18.36
2022-10-15T20:01:36.017Z,18.34
2022-10-15T20:04:06.865Z,18.36
2022-10-15T20:06:36.055Z,18.43
2022-10-15T20:09:03.751Z,18.42
2022-10-15T20:11:31.950Z,18.39
2022-10-15T20:13:59.526Z,18.39
2022-10-15T20:16:32.210Z,18.36
2022-10-15T20:19:03.480Z,18.32
2022-10-15T20:21:31.518Z,18.26
2022-10-15T20:23:59.249Z,18.29
2022-10-15T20:26:26.822Z,18.21
2022-10-15T20:28:54.537Z,18.22
2022-10-15T20:31:24.838Z,18.25
2022-10-15T20:33:52.450Z,18.28
2022-10-15T20:36:24.035Z,18.25
2022-10-15T20:38:52.600Z,18.13
2022-10-15T20:41:20.727Z,18.05
2022-10-15T20:43:55.089Z,18.03
2022-10-15T20:46:26.567Z,18.06
2022-10-15T20:48:56.741Z,18.01
2022-10-15T20:51:28.595Z,17.96
2022-10-15T20:53:56.794Z,17.94
2022-10-15T20:56:40.984Z,18.03
2022-10-15T20:59:44.487Z,17.93
2022-10-15T21:02:13.435Z,17.85
2022-10-15T21:05:09.996Z,17.98
2022-10-15T21:07:47.221Z,18.06
2022-10-15T21:10:17.127Z,18.05
2022-10-15T21:12:49.338Z,17.97
2022-10-15T21:15:17.305Z,17.94
2022-10-15T21:17:44.921Z,18.02
2022-10-15T21:20:12.751Z,18.06
2022-10-15T21:22:43.868Z,18.01
2022-10-15T21:25:11.542Z,17.97
2022-10-15T21:27:39.151Z,17.83
2022-10-15T21:30:10.811Z,17.70
2022-10-15T21:32:38.606Z,17.65
2022-10-15T21:35:08.524Z,17.67
2022-10-15T21:37:37.040Z,17.69
2022-10-15T21:40:07.612Z,17.63
2022-10-15T21:42:35.294Z,17.62
2022-10-15T21:45:08.419Z,17.60
2022-10-15T21:47:36.006Z,17.72
2022-10-15T21:50:03.754Z,17.77
2022-10-15T21:52:31.371Z,17.99
2022-10-15T21:54:59.010Z,17.91
2022-10-15T21:57:32.578Z,17.87
2022-10-15T22:00:00.187Z,18.07
2022-10-15T22:02:27.812Z,18.11
2022-10-15T22:04:55.423Z,18.09
2022-10-15T22:07:23.618Z,18.00
2022-10-15T22:09:51.498Z,17.90
2022-10-15T22:12:21.203Z,17.85
2022-10-15T22:14:50.331Z,17.86
2022-10-15T22:17:17.926Z,17.82
2022-10-15T22:19:45.502Z,17.77
2022-10-15T22:22:13.106Z,17.74
2022-10-15T22:24:41.107Z,17.67
2022-10-15T22:27:09.233Z,17.63
2022-10-15T22:29:36.828Z,17.58
2022-10-15T22:32:06.052Z,17.53
2022-10-15T22:34:36.534Z,17.44
2022-10-15T22:37:04.244Z,17.46
2022-10-15T22:39:33.272Z,17.39
2022-10-15T22:42:00.904Z,17.36
2022-10-15T22:44:28.824Z,17.39
2022-10-15T22:46:56.410Z,17.32
2022-10-15T22:49:26.032Z,17.33
2022-10-15T22:51:53.687Z,17.36
2022-10-15T22:54:23.190Z,17.23
2022-10-15T22:56:51.409Z,17.26
2022-10-15T22:59:19.239Z,17.37
2022-10-15T23:01:55.395Z,17.52
2022-10-15T23:04:23.168Z,17.52
2022-10-15T23:06:55.323Z,17.35
2022-10-15T23:09:24.824Z,17.31
2022-10-15T23:11:55.406Z,17.21
2022-10-15T23:14:23.001Z,17.15
2022-10-15T23:16:50.681Z,17.00
2022-10-15T23:19:19.875Z,17.10
2022-10-15T23:21:54.072Z,17.34
2022-10-15T23:24:25.449Z,17.52
2022-10-15T23:26:53.726Z,17.54
2022-10-15T23:29:23.505Z,17.37
2022-10-15T23:31:51.645Z,17.47
2022-10-15T23:34:21.416Z,17.28
2022-10-15T23:36:49.651Z,17.30
2022-10-15T23:39:19.500Z,17.36
2022-10-15T23:41:51.494Z,17.10
2022-10-15T23:44:19.498Z,17.40
2022-10-15T23:46:47.390Z,17.44
2022-10-15T23:49:15.062Z,17.36
2022-10-15T23:51:43.700Z,17.45
2022-10-15T23:54:17.382Z,17.29
2022-10-15T23:56:48.281Z,17.29
2022-10-15T23:59:18.204Z,17.27
